createdAt,value
2022-10-04T00:01:31.038Z,0.75
2022-10-04T00:06:32.721Z,0.43
2022-10-04T00:11:37.290Z,0.88
2022-10-04T00:16:40.844Z,0.50
2022-10-04T00:21:52.288Z,0.63
2022-10-04T00:27:25.310Z,0.80
2022-10-04T00:32:28.272Z,0.75
2022-10-04T00:38:12.857Z,0.50
2022-10-04T00:43:26.166Z,0.70
2022-10-04T00:48:31.597Z,0.80
2022-10-04T00:53:39.508Z,1.33
2022-10-04T00:59:08.724Z,0.85
2022-10-04T01:04:26.756Z,0.90
2022-10-04T01:09:30.508Z,0.70
2022-10-04T01:14:53.774Z,1.00
2022-10-04T01:19:56.170Z,0.80
2022-10-04T01:24:57.845Z,0.70
2022-10-04T01:30:01.082Z,0.88
2022-10-04T01:35:03.783Z,0.73
2022-10-04T01:40:09.069Z,0.80
2022-10-04T01:45:19.420Z,1.00
2022-10-04T01:50:30.090Z,1.00
2022-10-04T01:55:37.489Z,1.50
2022-10-04T02:00:46.348Z,1.00
2022-10-04T02:05:52.753Z,1.00
2022-10-04T02:10:55.932Z,1.15
2022-10-04T02:16:00.276Z,0.80
2022-10-04T02:21:06.010Z,0.90
2022-10-04T02:26:09.494Z,0.80
2022-10-04T02:31:30.257Z,0.70
2022-10-04T02:36:33.288Z,0.60
2022-10-04T02:42:01.630Z,0.63
2022-10-04T02:47:14.330Z,1.00
2022-10-04T02:52:42.250Z,1.08
2022-10-04T02:57:44.873Z,0.88
2022-10-04T03:03:11.309Z,1.60
2022-10-04T03:08:14.442Z,1.02
2022-10-04T03:13:18.540Z,0.70
2022-10-04T03:18:21.140Z,0.88
2022-10-04T03:23:22.869Z,0.80
2022-10-04T03:28:25.159Z,0.88
2022-10-04T03:33:27.596Z,1.27
2022-10-04T03:38:32.449Z,0.55
2022-10-04T03:43:40.666Z,0.80
2022-10-04T03:48:52.208Z,0.70
2022-10-04T03:53:59.805Z,1.17
2022-10-04T03:59:06.617Z,0.98
2022-10-04T04:04:17.708Z,0.93
2022-10-04T04:09:29.126Z,1.10
2022-10-04T04:14:30.890Z,1.25
2022-10-04T04:19:33.611Z,1.52
2022-10-04T04:24:36.468Z,1.67
2022-10-04T04:29:53.318Z,1.25
2022-10-04T04:35:08.598Z,1.10
2022-10-04T04:40:21.859Z,0.77
2022-10-04T04:45:26.676Z,0.98
2022-10-04T04:50:40.053Z,1.00
2022-10-04T04:56:03.712Z,1.27
2022-10-04T05:01:15.952Z,1.05
2022-10-04T05:06:29.127Z,0.90
2022-10-04T05:11:39.406Z,1.00
2022-10-04T05:16:51.200Z,1.13
2022-10-04T05:21:55.661Z,0.93
2022-10-04T05:27:04.280Z,1.20
2022-10-04T05:32:31.161Z,1.38
2022-10-04T05:37:35.876Z,1.15
2022-10-04T05:42:45.343Z,1.00
2022-10-04T05:47:51.410Z,1.10
2022-10-04T05:53:05.552Z,1.23
2022-10-04T05:58:25.514Z,1.00
2022-10-04T06:03:42.501Z,1.17
2022-10-04T06:08:59.542Z,1.20
2022-10-04T06:14:07.477Z,1.17
2022-10-04T06:19:44.588Z,0.90
2022-10-04T06:25:01.440Z,1.30
2022-10-04T06:30:16.099Z,1.30
2022-10-04T06:35:45.739Z,1.17
2022-10-04T06:41:00.202Z,0.90
2022-10-04T06:46:26.856Z,1.10
2022-10-04T06:52:22.793Z,0.90
2022-10-04T06:57:46.106Z,0.90
2022-10-04T07:03:10.660Z,1.08
2022-10-04T07:08:31.628Z,1.27
2022-10-04T07:13:45.611Z,1.00
2022-10-04T07:19:09.779Z,1.38
2022-10-04T07:24:18.765Z,1.38
2022-10-04T07:29:26.351Z,1.40
2022-10-04T07:34:31.510Z,1.30
2022-10-04T07:39:46.143Z,1.38
2022-10-04T07:45:25.846Z,1.45
2022-10-04T07:50:45.959Z,1.20
2022-10-04T07:56:00.358Z,1.10
2022-10-04T08:01:06.310Z,1.50
2022-10-04T08:06:35.723Z,1.27
2022-10-04T08:12:09.106Z,1.42
2022-10-04T08:17:26.445Z,1.10
2022-10-04T08:22:57.420Z,1.30
2022-10-04T08:28:27.021Z,1.27
2022-10-04T08:34:06.196Z,0.90
2022-10-04T08:39:39.833Z,1.00
2022-10-04T08:45:03.196Z,0.90
2022-10-04T08:50:44.594Z,1.38
2022-10-04T08:55:55.400Z,1.60
2022-10-04T09:01:26.343Z,1.17
2022-10-04T09:06:51.054Z,1.15
2022-10-04T09:12:28.149Z,0.90
2022-10-04T09:17:42.008Z,0.82
2022-10-04T09:23:31.920Z,1.13
2022-10-04T09:28:57.026Z,0.90
2022-10-04T09:34:23.507Z,1.05
2022-10-04T09:39:53.116Z,1.10
2022-10-04T09:45:27.616Z,1.38
2022-10-04T09:50:35.634Z,1.08
2022-10-04T09:56:00.588Z,1.17
2022-10-04T10:01:21.052Z,0.75
2022-10-04T10:06:50.117Z,1.00
2022-10-04T10:12:36.623Z,0.80
2022-10-04T10:17:59.912Z,1.20
2022-10-04T10:23:39.661Z,1.10
2022-10-04T10:29:23.397Z,0.90
2022-10-04T10:34:53.279Z,0.93
2022-10-04T10:45:34.176Z,0.77
2022-10-04T10:51:03.626Z,1.00
2022-10-04T10:56:30.064Z,1.02
2022-10-04T11:02:01.594Z,0.80
2022-10-04T11:07:16.556Z,1.85
2022-10-04T11:13:05.669Z,0.98
2022-10-04T11:18:26.693Z,1.10
2022-10-04T11:23:46.486Z,0.60
2022-10-04T11:34:24.833Z,0.70
2022-10-04T11:39:58.782Z,1.00
2022-10-04T11:45:00.593Z,0.70
2022-10-04T11:50:40.961Z,0.60
2022-10-04T11:56:04.412Z,0.75
2022-10-04T12:01:32.427Z,0.90
2022-10-04T12:06:47.873Z,0.90
2022-10-04T12:12:37.573Z,0.80
2022-10-04T12:18:11.700Z,0.80
2022-10-04T12:23:29.744Z,1.08
2022-10-04T12:29:04.140Z,1.00
2022-10-04T12:34:15.071Z,0.80
2022-10-04T12:39:34.699Z,0.77
2022-10-04T12:44:57.559Z,1.00
2022-10-04T12:50:08.846Z,0.68
2022-10-04T12:55:19.497Z,2.22
2022-10-04T13:00:23.872Z,1.10
2022-10-04T13:05:44.515Z,1.00
2022-10-04T13:11:07.633Z,1.10
2022-10-04T13:21:36.761Z,1.10
2022-10-04T13:26:56.138Z,0.73
2022-10-04T13:32:02.118Z,1.08
2022-10-04T13:37:22.643Z,0.98
2022-10-04T13:42:42.842Z,1.20
2022-10-04T13:48:12.751Z,1.35
2022-10-04T13:53:58.945Z,0.90
2022-10-04T13:59:10.234Z,0.90
2022-10-04T14:04:52.673Z,0.90
2022-10-04T14:10:12.470Z,0.73
2022-10-04T14:15:43.354Z,0.90
2022-10-04T14:21:06.787Z,0.98
2022-10-04T14:26:43.298Z,1.02
2022-10-04T14:32:14.922Z,0.90
2022-10-04T14:37:23.550Z,1.10
2022-10-04T14:42:49.228Z,1.25
2022-10-04T14:48:19.771Z,0.75
2022-10-04T14:53:32.789Z,0.82
2022-10-04T14:59:18.044Z,1.00
2022-10-04T15:04:36.764Z,2.00
2022-10-04T15:10:04.066Z,1.00
2022-10-04T15:15:13.094Z,0.80
2022-10-04T15:25:41.432Z,1.00
2022-10-04T15:31:20.621Z,0.70
2022-10-04T15:36:38.174Z,0.60
2022-10-04T15:42:07.381Z,0.70
2022-10-04T15:47:21.981Z,0.93
2022-10-04T15:52:47.420Z,0.80
2022-10-04T15:58:04.542Z,1.27
2022-10-04T16:03:28.384Z,1.70
2022-10-04T16:08:30.083Z,1.45
2022-10-04T16:13:39.667Z,1.65
2022-10-04T16:19:15.955Z,1.50
2022-10-04T16:24:20.559Z,1.35
2022-10-04T16:30:25.429Z,1.50
2022-10-04T16:35:33.531Z,1.38
2022-10-04T16:40:57.405Z,4.38
2022-10-04T16:46:16.339Z,6.00
2022-10-04T16:51:27.222Z,3.90
2022-10-04T16:56:54.163Z,3.00
2022-10-04T17:02:18.903Z,2.90
2022-10-04T17:07:58.831Z,2.33
2022-10-04T17:13:23.438Z,2.50
2022-10-04T17:18:36.733Z,2.08
2022-10-04T17:24:11.115Z,3.08
2022-10-04T17:29:15.853Z,4.25
2022-10-04T17:34:23.651Z,3.30
2022-10-04T17:39:28.372Z,2.40
2022-10-04T17:44:58.434Z,1.80
2022-10-04T17:50:32.451Z,2.30
2022-10-04T17:55:47.687Z,2.20
2022-10-04T18:01:21.448Z,1.77
2022-10-04T18:06:39.714Z,1.50
2022-10-04T18:11:47.337Z,1.67
2022-10-04T18:16:54.823Z,1.77
2022-10-04T18:22:09.503Z,2.95
2022-10-04T18:27:18.671Z,2.70
2022-10-04T18:32:26.331Z,2.15
2022-10-04T18:37:41.521Z,1.75
2022-10-04T18:42:52.945Z,1.63
2022-10-04T18:47:56.537Z,2.65
2022-10-04T18:53:15.205Z,3.00
2022-10-04T18:59:00.492Z,2.50
2022-10-04T19:04:14.735Z,2.55
2022-10-04T19:09:44.998Z,3.33
2022-10-04T19:14:53.781Z,3.63
2022-10-04T19:20:20.305Z,2.88
2022-10-04T19:26:29.834Z,4.00
2022-10-04T19:31:38.998Z,2.28
2022-10-04T19:37:10.791Z,2.80
2022-10-04T19:42:19.969Z,2.67
2022-10-04T19:52:39.038Z,3.50
2022-10-04T19:57:42.238Z,4.22
2022-10-04T20:02:48.502Z,3.80
2022-10-04T20:08:06.301Z,3.97
2022-10-04T20:13:12.251Z,3.92
2022-10-04T20:18:32.764Z,3.95
2022-10-04T20:23:37.825Z,3.72
2022-10-04T20:28:42.598Z,4.07
2022-10-04T20:33:48.706Z,3.50
2022-10-04T20:39:01.853Z,3.97
2022-10-04T20:44:06.683Z,3.85
2022-10-04T20:49:17.248Z,3.65
2022-10-04T20:54:20.875Z,3.17
2022-10-04T20:59:24.097Z,3.40
2022-10-04T21:04:50.099Z,3.22
2022-10-04T21:09:56.511Z,3.65
2022-10-04T21:15:16.885Z,2.97
2022-10-04T21:20:41.744Z,3.38
2022-10-04T21:25:43.415Z,3.80
2022-10-04T21:30:45.404Z,4.13
2022-10-04T21:35:50.980Z,4.20
2022-10-04T21:40:52.769Z,4.10
2022-10-04T21:45:55.058Z,4.03
2022-10-04T21:50:56.757Z,4.18
2022-10-04T21:55:58.367Z,3.78
2022-10-04T22:01:00.315Z,3.80
2022-10-04T22:06:02.039Z,3.58
2022-10-04T22:11:03.960Z,3.42
2022-10-04T22:16:06.400Z,3.80
2022-10-04T22:21:08.246Z,3.88
2022-10-04T22:26:16.319Z,4.90
2022-10-04T22:31:20.863Z,4.90
2022-10-04T22:36:39.293Z,5.18
2022-10-04T22:41:58.462Z,4.07
2022-10-04T22:52:13.161Z,5.47
2022-10-04T22:57:17.422Z,4.40
2022-10-04T23:02:29.712Z,3.90
2022-10-04T23:07:36.032Z,3.67
2022-10-04T23:12:40.879Z,3.33
2022-10-04T23:17:43.166Z,3.35
2022-10-04T23:22:50.518Z,3.72
2022-10-04T23:27:52.518Z,3.17
2022-10-04T23:32:58.069Z,4.15
2022-10-04T23:38:03.739Z,3.78
2022-10-04T23:43:05.894Z,3.15
2022-10-04T23:48:11.257Z,2.95
2022-10-04T23:53:23.098Z,2.80
2022-10-04T23:58:32.492Z,2.50
